Aviation Digital Data Service (ADDS)

Output produced by METARs form (1615 UTC 29 May 2015)
found at http://aviationweather.gov/adds/metars/
 
KART 291506Z 2915/3012 26004KT P6SM BKN250 
     FM292300 17004KT P6SM FEW250 
     FM300400 16008KT P6SM SCT250 
     FM300600 18009KT P6SM BKN070 
     FM301100 19011KT P6SM BKN050